createdAt,value
2018-12-09T00:03:13.097Z,11.20
2018-12-09T00:08:16.325Z,11.10
2018-12-09T00:13:19.593Z,11.30
2018-12-09T00:18:23.926Z,11.10
2018-12-09T00:23:27.118Z,11.30
2018-12-09T00:28:30.436Z,11.20
2018-12-09T00:33:33.775Z,11.50
2018-12-09T00:38:36.997Z,11.40
2018-12-09T00:43:40.214Z,11.60
2018-12-09T00:48:43.435Z,11.40
2018-12-09T00:53:46.647Z,11.50
2018-12-09T00:58:49.874Z,11.50
2018-12-09T01:03:53.133Z,11.50
2018-12-09T01:08:57.283Z,11.20
2018-12-09T01:14:00.501Z,11.40
2018-12-09T01:19:04.026Z,11.20
2018-12-09T01:24:07.334Z,11.40
2018-12-09T01:29:10.572Z,11.20
2018-12-09T01:34:13.899Z,11.20
2018-12-09T01:39:17.165Z,11.20
2018-12-09T01:44:20.386Z,11.20
2018-12-09T01:49:23.594Z,11.10
2018-12-09T01:54:26.917Z,11.20
2018-12-09T01:59:30.242Z,11.10
2018-12-09T02:04:33.645Z,11.30
2018-12-09T02:09:36.848Z,11.20
2018-12-09T02:14:41.045Z,11.10
2018-12-09T02:19:44.534Z,11.20
2018-12-09T02:24:47.745Z,11.20
2018-12-09T02:29:50.950Z,11.30
2018-12-09T02:34:54.245Z,11.20
2018-12-09T02:40:08.786Z,11.20
2018-12-09T02:45:12.011Z,11.30
2018-12-09T02:50:16.334Z,11.20
2018-12-09T02:55:19.734Z,11.30
2018-12-09T03:00:22.960Z,11.20
2018-12-09T03:05:26.458Z,11.30
2018-12-09T03:10:30.779Z,11.10
2018-12-09T03:15:34.095Z,11.20
2018-12-09T03:20:37.310Z,11.10
2018-12-09T03:25:40.598Z,11.20
2018-12-09T03:30:43.931Z,11.30
2018-12-09T03:35:47.275Z,11.30
2018-12-09T03:40:50.494Z,11.10
2018-12-09T03:45:53.753Z,11.30
2018-12-09T03:50:57.071Z,11.20
2018-12-09T03:56:00.391Z,11.10
2018-12-09T04:01:03.705Z,11.20
2018-12-09T04:06:07.926Z,11.30
2018-12-09T04:11:11.150Z,11.20
2018-12-09T04:16:14.766Z,11.30
2018-12-09T04:21:18.011Z,11.20
2018-12-09T04:26:21.667Z,11.10
2018-12-09T04:31:24.914Z,11.20
2018-12-09T04:36:28.412Z,11.30
2018-12-09T04:41:31.739Z,11.10
2018-12-09T04:46:35.062Z,11.20
2018-12-09T04:51:49.863Z,11.20
2018-12-09T04:56:53.203Z,11.20
2018-12-09T05:01:56.530Z,11.20
2018-12-09T05:06:59.770Z,11.10
2018-12-09T05:12:02.998Z,11.10
2018-12-09T05:17:06.406Z,11.00
2018-12-09T05:22:10.374Z,11.20
2018-12-09T05:27:13.585Z,11.20
2018-12-09T05:32:17.443Z,11.10
2018-12-09T05:37:20.702Z,11.20
2018-12-09T05:42:24.322Z,11.30
2018-12-09T05:47:27.640Z,10.90
2018-12-09T05:52:32.186Z,10.80
2018-12-09T05:57:35.423Z,11.20
2018-12-09T06:02:51.998Z,11.20
2018-12-09T06:07:55.306Z,11.20
2018-12-09T06:12:58.534Z,11.10
2018-12-09T06:18:01.825Z,11.10
2018-12-09T06:23:05.071Z,11.30
2018-12-09T06:28:08.302Z,11.10
2018-12-09T06:33:11.539Z,11.20
2018-12-09T06:38:14.766Z,11.20
2018-12-09T06:43:17.990Z,11.00
2018-12-09T06:48:21.222Z,11.00
2018-12-09T06:53:24.447Z,11.10
2018-12-09T06:58:27.774Z,11.20
2018-12-09T07:03:30.999Z,11.00
2018-12-09T07:08:34.218Z,11.20
2018-12-09T07:13:37.471Z,11.20
2018-12-09T07:18:40.700Z,11.20
2018-12-09T07:23:44.078Z,11.20
2018-12-09T07:28:47.305Z,11.10
2018-12-09T07:33:50.627Z,11.10
2018-12-09T07:38:54.662Z,10.80
2018-12-09T07:43:57.898Z,11.20
2018-12-09T07:49:01.114Z,11.20
2018-12-09T07:54:04.535Z,11.20
2018-12-09T07:59:10.508Z,11.20
2018-12-09T08:04:13.822Z,11.00
2018-12-09T08:09:17.074Z,10.80
2018-12-09T08:14:20.486Z,11.00
2018-12-09T08:19:24.143Z,11.30
2018-12-09T08:24:27.380Z,10.90
2018-12-09T08:29:30.610Z,11.10
2018-12-09T08:34:33.830Z,11.20
2018-12-09T08:39:37.088Z,11.20
2018-12-09T08:44:40.306Z,11.10
2018-12-09T08:49:43.623Z,11.20
2018-12-09T08:54:46.854Z,11.10
2018-12-09T08:59:50.190Z,11.20
2018-12-09T09:04:53.402Z,11.00
2018-12-09T09:09:56.609Z,11.20
2018-12-09T09:14:59.866Z,11.20
2018-12-09T09:20:03.218Z,11.20
2018-12-09T09:25:06.446Z,11.10
2018-12-09T09:30:09.886Z,11.20
2018-12-09T09:35:13.134Z,11.10
2018-12-09T09:40:16.339Z,11.20
2018-12-09T09:45:19.561Z,11.00
2018-12-09T09:50:22.793Z,11.10
2018-12-09T09:55:26.307Z,11.20
2018-12-09T10:00:29.546Z,11.00
2018-12-09T10:05:32.791Z,11.10
2018-12-09T10:10:36.034Z,11.20
2018-12-09T10:15:39.302Z,11.00
2018-12-09T10:20:42.542Z,11.10
2018-12-09T10:25:45.878Z,11.20
2018-12-09T10:30:49.126Z,11.20
2018-12-09T10:35:52.349Z,11.10
2018-12-09T10:40:55.602Z,11.00
2018-12-09T10:45:58.850Z,11.00
2018-12-09T10:51:02.082Z,11.20
2018-12-09T10:56:05.326Z,11.20
2018-12-09T11:06:15.763Z,11.20
2018-12-09T11:11:19.010Z,11.10
2018-12-09T11:16:22.785Z,11.00
2018-12-09T11:21:30.494Z,11.30
2018-12-09T11:26:31.713Z,11.20
2018-12-09T11:31:34.932Z,11.20
2018-12-09T11:36:38.142Z,11.10
2018-12-09T11:41:41.402Z,11.20
2018-12-09T11:46:44.627Z,11.20
2018-12-09T11:51:47.878Z,11.20
2018-12-09T11:56:52.338Z,11.10
2018-12-09T12:01:55.654Z,11.20
2018-12-09T12:06:58.874Z,10.90
2018-12-09T12:12:02.105Z,11.20
2018-12-09T12:17:05.346Z,11.10
2018-12-09T12:22:08.654Z,11.20
2018-12-09T12:27:11.915Z,11.20
2018-12-09T12:32:15.167Z,10.80
2018-12-09T12:37:18.677Z,11.10
2018-12-09T12:42:22.079Z,11.20
2018-12-09T12:47:25.452Z,11.20
2018-12-09T12:52:28.879Z,11.10
2018-12-09T12:57:32.090Z,11.20
2018-12-09T13:02:35.332Z,11.00
2018-12-09T13:07:38.570Z,11.10
2018-12-09T13:12:41.803Z,11.20
2018-12-09T13:17:45.023Z,11.20
2018-12-09T13:22:48.311Z,11.00
2018-12-09T13:27:51.906Z,11.20
2018-12-09T13:32:55.262Z,11.20
2018-12-09T13:37:58.710Z,11.00
2018-12-09T13:43:02.046Z,11.20
2018-12-09T13:48:05.826Z,12.10
2018-12-09T13:53:09.266Z,11.60
2018-12-09T13:58:13.970Z,11.60
2018-12-09T14:03:17.326Z,11.60
2018-12-09T14:08:20.703Z,11.50
2018-12-09T14:13:23.956Z,11.30
2018-12-09T14:18:27.778Z,11.30
2018-12-09T14:23:31.017Z,11.30
2018-12-09T14:28:35.758Z,11.30
2018-12-09T14:33:39.027Z,11.20
2018-12-09T14:38:43.768Z,11.20
2018-12-09T14:43:47.040Z,11.20
2018-12-09T14:48:50.543Z,11.20
2018-12-09T14:53:53.782Z,11.20
2018-12-09T14:58:57.022Z,11.30
2018-12-09T15:04:00.234Z,11.20
2018-12-09T15:09:04.823Z,11.20
2018-12-09T15:14:08.026Z,11.20
2018-12-09T15:19:11.267Z,11.10
2018-12-09T15:24:14.566Z,11.20
2018-12-09T15:29:17.866Z,11.10
2018-12-09T15:34:21.178Z,11.00
2018-12-09T15:39:24.398Z,11.10
2018-12-09T15:44:27.619Z,11.20
2018-12-09T15:49:30.932Z,11.20
2018-12-09T15:54:34.577Z,11.10
2018-12-09T15:59:37.834Z,11.20
2018-12-09T16:04:41.082Z,11.10
2018-12-09T16:09:44.292Z,11.20
2018-12-09T16:14:47.523Z,11.20
2018-12-09T16:19:50.755Z,11.20
2018-12-09T16:24:54.034Z,11.10
2018-12-09T16:29:57.270Z,11.10
2018-12-09T16:35:00.510Z,11.10
2018-12-09T16:40:04.348Z,11.10
2018-12-09T16:45:08.654Z,11.20
2018-12-09T16:50:12.035Z,11.10
2018-12-09T16:55:15.249Z,10.90
2018-12-09T17:00:18.746Z,11.20
2018-12-09T17:05:22.405Z,11.10
2018-12-09T17:10:25.614Z,11.10
2018-12-09T17:15:28.927Z,11.20
2018-12-09T17:20:33.166Z,11.00
2018-12-09T17:25:36.368Z,10.90
2018-12-09T17:30:39.954Z,11.30
2018-12-09T17:35:44.582Z,10.80
2018-12-09T17:40:47.922Z,10.80
2018-12-09T17:45:51.495Z,10.90
2018-12-09T17:50:54.706Z,10.80
2018-12-09T17:55:58.032Z,10.90
2018-12-09T18:01:01.231Z,10.90
2018-12-09T18:06:04.648Z,10.90
2018-12-09T18:11:08.039Z,10.80
2018-12-09T18:16:11.542Z,10.90
2018-12-09T18:21:14.770Z,11.20
2018-12-09T18:26:18.083Z,10.80
2018-12-09T18:31:22.439Z,10.90
2018-12-09T18:36:25.662Z,10.90
2018-12-09T18:41:28.902Z,10.80
2018-12-09T18:46:32.486Z,10.90
2018-12-09T18:51:35.718Z,10.80
2018-12-09T18:56:39.296Z,10.90
2018-12-09T19:01:42.603Z,10.70
2018-12-09T19:06:45.942Z,10.90
2018-12-09T19:11:49.208Z,10.90
2018-12-09T19:16:52.442Z,10.90
2018-12-09T19:21:55.676Z,10.90
2018-12-09T19:26:58.938Z,10.80
2018-12-09T19:32:02.543Z,10.80
2018-12-09T19:37:06.545Z,10.80
2018-12-09T19:42:09.890Z,10.70
2018-12-09T19:47:13.114Z,10.90
2018-12-09T19:52:16.430Z,10.80
2018-12-09T19:57:19.878Z,10.90
2018-12-09T20:02:23.123Z,10.80
2018-12-09T20:07:26.366Z,10.60
2018-12-09T20:12:30.585Z,10.80
2018-12-09T20:17:33.846Z,10.70
2018-12-09T20:22:37.145Z,10.80
2018-12-09T20:27:40.454Z,10.80
2018-12-09T20:32:43.678Z,10.70
2018-12-09T20:37:46.915Z,10.80
2018-12-09T20:42:50.262Z,10.60
2018-12-09T20:47:54.016Z,10.60
2018-12-09T20:52:57.250Z,10.70
2018-12-09T20:58:00.482Z,10.70
2018-12-09T21:03:03.821Z,10.40
2018-12-09T21:08:07.061Z,10.60
2018-12-09T21:13:10.382Z,10.70
2018-12-09T21:18:13.627Z,10.60
2018-12-09T21:23:16.866Z,10.60
2018-12-09T21:28:20.130Z,10.30
2018-12-09T21:33:25.222Z,10.60
2018-12-09T21:38:28.462Z,10.50
2018-12-09T21:43:31.730Z,10.40
2018-12-09T21:48:34.972Z,10.50
2018-12-09T21:53:38.323Z,10.40
2018-12-09T21:58:41.558Z,10.40
2018-12-09T22:03:44.790Z,10.60
2018-12-09T22:08:48.014Z,10.60
2018-12-09T22:13:51.551Z,10.40
2018-12-09T22:18:54.963Z,10.50
2018-12-09T22:23:58.190Z,10.60
2018-12-09T22:29:01.449Z,10.40
2018-12-09T22:34:04.770Z,10.50
2018-12-09T22:39:08.139Z,10.50
2018-12-09T22:44:11.370Z,10.50
2018-12-09T22:49:15.022Z,10.50
2018-12-09T22:54:19.258Z,10.20
2018-12-09T22:59:22.564Z,10.50
2018-12-09T23:04:25.898Z,10.50
2018-12-09T23:09:29.326Z,10.40
2018-12-09T23:14:32.759Z,10.00
2018-12-09T23:19:36.123Z,10.00
2018-12-09T23:24:39.358Z,10.40
2018-12-09T23:29:43.720Z,10.00
2018-12-09T23:34:46.922Z,10.30
2018-12-09T23:39:50.150Z,10.40
2018-12-09T23:44:53.374Z,10.00
2018-12-09T23:49:56.594Z,10.30
2018-12-09T23:54:59.814Z,10.50
